sensor_id;sensor_type;location;lat;lon;timestamp;temperature;humidity
61398;DHT22;47267;48.130;-2.040;2024-01-07T00:01:13;18.60;52.80
61398;DHT22;47267;48.130;-2.040;2024-01-07T00:03:42;18.60;52.90
61398;DHT22;47267;48.130;-2.040;2024-01-07T00:06:10;18.60;52.90
61398;DHT22;47267;48.130;-2.040;2024-01-07T00:08:36;18.60;52.80
61398;DHT22;47267;48.130;-2.040;2024-01-07T00:11:02;18.60;52.70
61398;DHT22;47267;48.130;-2.040;2024-01-07T00:13:27;18.60;52.80
61398;DHT22;47267;48.130;-2.040;2024-01-07T00:15:53;18.60;52.70
61398;DHT22;47267;48.130;-2.040;2024-01-07T00:18:22;18.60;52.70
61398;DHT22;47267;48.130;-2.040;2024-01-07T00:20:49;18.60;52.60
61398;DHT22;47267;48.130;-2.040;2024-01-07T00:23:15;18.60;52.70
61398;DHT22;47267;48.130;-2.040;2024-01-07T00:25:41;18.60;52.60
61398;DHT22;47267;48.130;-2.040;2024-01-07T00:28:06;18.60;52.60
61398;DHT22;47267;48.130;-2.040;2024-01-07T00:30:32;18.60;52.60
61398;DHT22;47267;48.130;-2.040;2024-01-07T00:32:58;18.60;52.60
61398;DHT22;47267;48.130;-2.040;2024-01-07T00:35:23;18.60;52.70
61398;DHT22;47267;48.130;-2.040;2024-01-07T00:37:49;18.60;52.60
61398;DHT22;47267;48.130;-2.040;2024-01-07T00:40:15;18.60;52.30
61398;DHT22;47267;48.130;-2.040;2024-01-07T00:42:41;18.60;52.40
61398;DHT22;47267;48.130;-2.040;2024-01-07T00:45:07;18.50;52.20
61398;DHT22;47267;48.130;-2.040;2024-01-07T00:47:34;18.60;52.40
61398;DHT22;47267;48.130;-2.040;2024-01-07T00:50:00;18.60;52.40
61398;DHT22;47267;48.130;-2.040;2024-01-07T00:52:25;18.50;52.20
61398;DHT22;47267;48.130;-2.040;2024-01-07T00:54:51;18.60;52.20
61398;DHT22;47267;48.130;-2.040;2024-01-07T00:57:17;18.60;52.30
61398;DHT22;47267;48.130;-2.040;2024-01-07T00:59:42;18.50;52.10
61398;DHT22;47267;48.130;-2.040;2024-01-07T01:02:08;18.60;52.30
61398;DHT22;47267;48.130;-2.040;2024-01-07T01:04:34;18.60;52.20
61398;DHT22;47267;48.130;-2.040;2024-01-07T01:06:59;18.50;52.10
61398;DHT22;47267;48.130;-2.040;2024-01-07T01:09:28;18.60;52.80
61398;DHT22;47267;48.130;-2.040;2024-01-07T01:11:54;18.60;52.20
61398;DHT22;47267;48.130;-2.040;2024-01-07T01:14:19;18.50;52.10
61398;DHT22;47267;48.130;-2.040;2024-01-07T01:16:45;18.50;52.10
61398;DHT22;47267;48.130;-2.040;2024-01-07T01:19:11;18.50;52.00
61398;DHT22;47267;48.130;-2.040;2024-01-07T01:21:36;18.50;52.00
61398;DHT22;47267;48.130;-2.040;2024-01-07T01:24:02;18.60;52.10
61398;DHT22;47267;48.130;-2.040;2024-01-07T01:26:28;18.50;52.00
61398;DHT22;47267;48.130;-2.040;2024-01-07T01:28:53;18.50;52.00
61398;DHT22;47267;48.130;-2.040;2024-01-07T01:31:19;18.50;52.00
61398;DHT22;47267;48.130;-2.040;2024-01-07T01:33:45;18.60;52.20
61398;DHT22;47267;48.130;-2.040;2024-01-07T01:36:11;18.60;51.90
61398;DHT22;47267;48.130;-2.040;2024-01-07T01:38:36;18.50;52.00
61398;DHT22;47267;48.130;-2.040;2024-01-07T01:41:02;18.60;52.00
61398;DHT22;47267;48.130;-2.040;2024-01-07T01:43:28;18.50;52.50
61398;DHT22;47267;48.130;-2.040;2024-01-07T01:45:55;18.50;51.90
61398;DHT22;47267;48.130;-2.040;2024-01-07T01:48:25;18.50;51.80
61398;DHT22;47267;48.130;-2.040;2024-01-07T01:50:53;18.60;51.90
61398;DHT22;47267;48.130;-2.040;2024-01-07T01:53:24;18.50;51.80
61398;DHT22;47267;48.130;-2.040;2024-01-07T01:55:51;18.50;51.70
61398;DHT22;47267;48.130;-2.040;2024-01-07T01:58:18;18.50;51.70
61398;DHT22;47267;48.130;-2.040;2024-01-07T02:00:44;18.50;51.80
61398;DHT22;47267;48.130;-2.040;2024-01-07T02:03:10;18.50;51.70
61398;DHT22;47267;48.130;-2.040;2024-01-07T02:05:36;18.50;51.80
61398;DHT22;47267;48.130;-2.040;2024-01-07T02:08:02;18.50;51.60
61398;DHT22;47267;48.130;-2.040;2024-01-07T02:10:28;18.50;51.60
61398;DHT22;47267;48.130;-2.040;2024-01-07T02:13:00;18.50;51.50
61398;DHT22;47267;48.130;-2.040;2024-01-07T02:15:25;18.50;51.40
61398;DHT22;47267;48.130;-2.040;2024-01-07T02:17:54;18.50;51.60
61398;DHT22;47267;48.130;-2.040;2024-01-07T02:20:20;18.50;51.70
61398;DHT22;47267;48.130;-2.040;2024-01-07T02:22:45;18.50;51.50
61398;DHT22;47267;48.130;-2.040;2024-01-07T02:25:11;18.50;51.50
61398;DHT22;47267;48.130;-2.040;2024-01-07T02:27:37;18.50;51.50
61398;DHT22;47267;48.130;-2.040;2024-01-07T02:30:03;18.50;51.50
61398;DHT22;47267;48.130;-2.040;2024-01-07T02:32:28;18.50;51.50
61398;DHT22;47267;48.130;-2.040;2024-01-07T02:34:57;18.50;51.30
61398;DHT22;47267;48.130;-2.040;2024-01-07T02:37:23;18.50;51.30
61398;DHT22;47267;48.130;-2.040;2024-01-07T02:39:49;18.50;51.40
61398;DHT22;47267;48.130;-2.040;2024-01-07T02:42:14;18.50;51.30
61398;DHT22;47267;48.130;-2.040;2024-01-07T02:44:40;18.50;51.30
61398;DHT22;47267;48.130;-2.040;2024-01-07T02:47:05;18.50;51.20
61398;DHT22;47267;48.130;-2.040;2024-01-07T02:49:31;18.50;51.30
61398;DHT22;47267;48.130;-2.040;2024-01-07T02:51:57;18.50;51.40
61398;DHT22;47267;48.130;-2.040;2024-01-07T02:54:22;18.50;51.10
61398;DHT22;47267;48.130;-2.040;2024-01-07T02:56:48;18.50;51.20
61398;DHT22;47267;48.130;-2.040;2024-01-07T02:59:14;18.50;51.30
61398;DHT22;47267;48.130;-2.040;2024-01-07T03:01:39;18.50;51.20
61398;DHT22;47267;48.130;-2.040;2024-01-07T03:04:10;18.50;51.20
61398;DHT22;47267;48.130;-2.040;2024-01-07T03:06:36;18.50;51.20
61398;DHT22;47267;48.130;-2.040;2024-01-07T03:09:02;18.50;51.20
61398;DHT22;47267;48.130;-2.040;2024-01-07T03:11:28;18.50;51.20
61398;DHT22;47267;48.130;-2.040;2024-01-07T03:13:55;18.50;51.30
61398;DHT22;47267;48.130;-2.040;2024-01-07T03:16:22;18.50;51.10
61398;DHT22;47267;48.130;-2.040;2024-01-07T03:18:47;18.50;51.10
61398;DHT22;47267;48.130;-2.040;2024-01-07T03:21:19;18.50;51.20
61398;DHT22;47267;48.130;-2.040;2024-01-07T03:23:46;18.50;51.10
61398;DHT22;47267;48.130;-2.040;2024-01-07T03:26:13;18.50;51.10
61398;DHT22;47267;48.130;-2.040;2024-01-07T03:28:39;18.50;51.30
61398;DHT22;47267;48.130;-2.040;2024-01-07T03:31:15;18.50;51.10
61398;DHT22;47267;48.130;-2.040;2024-01-07T03:33:42;18.50;51.10
61398;DHT22;47267;48.130;-2.040;2024-01-07T03:36:09;18.50;51.00
61398;DHT22;47267;48.130;-2.040;2024-01-07T03:38:36;18.50;51.00
61398;DHT22;47267;48.130;-2.040;2024-01-07T03:41:02;18.50;51.00
61398;DHT22;47267;48.130;-2.040;2024-01-07T03:43:28;18.50;50.90
61398;DHT22;47267;48.130;-2.040;2024-01-07T03:45:54;18.50;50.90
61398;DHT22;47267;48.130;-2.040;2024-01-07T03:48:19;18.50;51.00
61398;DHT22;47267;48.130;-2.040;2024-01-07T03:50:45;18.50;51.00
61398;DHT22;47267;48.130;-2.040;2024-01-07T03:53:12;18.50;51.00
61398;DHT22;47267;48.130;-2.040;2024-01-07T03:55:38;18.50;51.00
61398;DHT22;47267;48.130;-2.040;2024-01-07T03:58:04;18.50;50.90
61398;DHT22;47267;48.130;-2.040;2024-01-07T04:00:31;18.50;50.80
61398;DHT22;47267;48.130;-2.040;2024-01-07T04:02:57;18.50;50.80
61398;DHT22;47267;48.130;-2.040;2024-01-07T04:05:22;18.50;50.80
61398;DHT22;47267;48.130;-2.040;2024-01-07T04:07:48;18.50;50.70
61398;DHT22;47267;48.130;-2.040;2024-01-07T04:10:18;18.50;50.80
61398;DHT22;47267;48.130;-2.040;2024-01-07T04:12:44;18.50;50.80
61398;DHT22;47267;48.130;-2.040;2024-01-07T04:15:11;18.50;51.00
61398;DHT22;47267;48.130;-2.040;2024-01-07T04:17:37;18.50;50.70
61398;DHT22;47267;48.130;-2.040;2024-01-07T04:20:03;18.50;50.80
61398;DHT22;47267;48.130;-2.040;2024-01-07T04:22:29;18.50;50.90
61398;DHT22;47267;48.130;-2.040;2024-01-07T04:24:54;18.50;50.70
61398;DHT22;47267;48.130;-2.040;2024-01-07T04:27:20;18.50;50.80
61398;DHT22;47267;48.130;-2.040;2024-01-07T04:29:45;18.50;51.30
61398;DHT22;47267;48.130;-2.040;2024-01-07T04:32:11;18.50;50.80
61398;DHT22;47267;48.130;-2.040;2024-01-07T04:34:37;18.50;50.80
61398;DHT22;47267;48.130;-2.040;2024-01-07T04:37:03;18.50;50.70
61398;DHT22;47267;48.130;-2.040;2024-01-07T04:39:28;18.50;50.80
61398;DHT22;47267;48.130;-2.040;2024-01-07T04:41:54;18.50;50.60
61398;DHT22;47267;48.130;-2.040;2024-01-07T04:44:20;18.50;50.70
61398;DHT22;47267;48.130;-2.040;2024-01-07T04:46:47;18.50;50.60
61398;DHT22;47267;48.130;-2.040;2024-01-07T04:49:13;18.50;50.60
61398;DHT22;47267;48.130;-2.040;2024-01-07T04:51:38;18.50;50.80
61398;DHT22;47267;48.130;-2.040;2024-01-07T04:54:04;18.50;50.70
61398;DHT22;47267;48.130;-2.040;2024-01-07T04:56:31;18.50;50.70
61398;DHT22;47267;48.130;-2.040;2024-01-07T04:58:57;18.50;50.60
61398;DHT22;47267;48.130;-2.040;2024-01-07T05:01:23;18.50;50.60
61398;DHT22;47267;48.130;-2.040;2024-01-07T05:03:48;18.50;50.50
61398;DHT22;47267;48.130;-2.040;2024-01-07T05:06:14;18.50;50.60
61398;DHT22;47267;48.130;-2.040;2024-01-07T05:08:43;18.50;50.60
61398;DHT22;47267;48.130;-2.040;2024-01-07T05:11:09;18.50;50.70
61398;DHT22;47267;48.130;-2.040;2024-01-07T05:13:35;18.50;50.60
61398;DHT22;47267;48.130;-2.040;2024-01-07T05:16:01;18.50;50.50
61398;DHT22;47267;48.130;-2.040;2024-01-07T05:18:28;18.50;50.60
61398;DHT22;47267;48.130;-2.040;2024-01-07T05:20:53;18.50;50.40
61398;DHT22;47267;48.130;-2.040;2024-01-07T05:23:19;18.50;50.50
61398;DHT22;47267;48.130;-2.040;2024-01-07T05:25:46;18.50;50.40
61398;DHT22;47267;48.130;-2.040;2024-01-07T05:28:12;18.50;50.60
61398;DHT22;47267;48.130;-2.040;2024-01-07T05:30:39;18.50;50.30
61398;DHT22;47267;48.130;-2.040;2024-01-07T05:33:05;18.50;50.50
61398;DHT22;47267;48.130;-2.040;2024-01-07T05:35:31;18.50;50.50
61398;DHT22;47267;48.130;-2.040;2024-01-07T05:37:57;18.50;50.40
61398;DHT22;47267;48.130;-2.040;2024-01-07T05:40:23;18.50;50.40
61398;DHT22;47267;48.130;-2.040;2024-01-07T05:42:48;18.40;50.40
61398;DHT22;47267;48.130;-2.040;2024-01-07T05:45:14;18.40;50.20
61398;DHT22;47267;48.130;-2.040;2024-01-07T05:47:40;18.50;50.40
61398;DHT22;47267;48.130;-2.040;2024-01-07T05:50:09;18.50;50.40
61398;DHT22;47267;48.130;-2.040;2024-01-07T05:52:34;18.50;50.40
61398;DHT22;47267;48.130;-2.040;2024-01-07T05:55:00;18.50;50.40
61398;DHT22;47267;48.130;-2.040;2024-01-07T05:57:26;18.50;50.30
61398;DHT22;47267;48.130;-2.040;2024-01-07T05:59:52;18.50;50.30
61398;DHT22;47267;48.130;-2.040;2024-01-07T06:02:18;18.40;50.20
61398;DHT22;47267;48.130;-2.040;2024-01-07T06:04:43;18.50;50.20
61398;DHT22;47267;48.130;-2.040;2024-01-07T06:07:09;18.50;50.30
61398;DHT22;47267;48.130;-2.040;2024-01-07T06:09:35;18.50;50.30
61398;DHT22;47267;48.130;-2.040;2024-01-07T06:12:01;18.40;50.20
61398;DHT22;47267;48.130;-2.040;2024-01-07T06:14:27;18.40;50.30
61398;DHT22;47267;48.130;-2.040;2024-01-07T06:16:52;18.40;50.10
61398;DHT22;47267;48.130;-2.040;2024-01-07T06:19:18;18.40;50.10
61398;DHT22;47267;48.130;-2.040;2024-01-07T06:21:44;18.50;50.30
61398;DHT22;47267;48.130;-2.040;2024-01-07T06:24:10;18.50;50.30
61398;DHT22;47267;48.130;-2.040;2024-01-07T06:26:36;18.50;50.20
61398;DHT22;47267;48.130;-2.040;2024-01-07T06:29:02;18.50;50.30
61398;DHT22;47267;48.130;-2.040;2024-01-07T06:31:28;18.50;50.20
61398;DHT22;47267;48.130;-2.040;2024-01-07T06:33:54;18.40;50.00
61398;DHT22;47267;48.130;-2.040;2024-01-07T06:36:24;18.40;50.20
61398;DHT22;47267;48.130;-2.040;2024-01-07T06:38:50;18.50;50.10
61398;DHT22;47267;48.130;-2.040;2024-01-07T06:41:16;18.40;50.70
61398;DHT22;47267;48.130;-2.040;2024-01-07T06:43:42;18.40;50.10
61398;DHT22;47267;48.130;-2.040;2024-01-07T06:46:08;18.40;50.10
61398;DHT22;47267;48.130;-2.040;2024-01-07T06:48:33;18.40;50.10
61398;DHT22;47267;48.130;-2.040;2024-01-07T06:50:59;18.40;50.00
61398;DHT22;47267;48.130;-2.040;2024-01-07T06:53:25;18.40;50.10
61398;DHT22;47267;48.130;-2.040;2024-01-07T06:55:50;18.40;50.00
61398;DHT22;47267;48.130;-2.040;2024-01-07T06:58:16;18.40;50.10
61398;DHT22;47267;48.130;-2.040;2024-01-07T07:00:42;18.40;50.10
61398;DHT22;47267;48.130;-2.040;2024-01-07T07:03:08;18.40;50.00
61398;DHT22;47267;48.130;-2.040;2024-01-07T07:05:34;18.40;50.10
61398;DHT22;47267;48.130;-2.040;2024-01-07T07:07:59;18.40;50.10
61398;DHT22;47267;48.130;-2.040;2024-01-07T07:10:25;18.40;50.00
61398;DHT22;47267;48.130;-2.040;2024-01-07T07:12:51;18.40;50.10
61398;DHT22;47267;48.130;-2.040;2024-01-07T07:15:17;18.40;49.90
61398;DHT22;47267;48.130;-2.040;2024-01-07T07:17:43;18.40;50.10
61398;DHT22;47267;48.130;-2.040;2024-01-07T07:20:09;18.40;50.00
61398;DHT22;47267;48.130;-2.040;2024-01-07T07:22:35;18.40;50.10
61398;DHT22;47267;48.130;-2.040;2024-01-07T07:25:01;18.40;50.40
61398;DHT22;47267;48.130;-2.040;2024-01-07T07:27:28;18.40;50.50
61398;DHT22;47267;48.130;-2.040;2024-01-07T07:29:55;18.40;50.60
61398;DHT22;47267;48.130;-2.040;2024-01-07T07:32:21;18.40;50.70
61398;DHT22;47267;48.130;-2.040;2024-01-07T07:34:46;18.40;50.80
61398;DHT22;47267;48.130;-2.040;2024-01-07T07:37:13;18.40;50.80
61398;DHT22;47267;48.130;-2.040;2024-01-07T07:39:39;18.40;50.90
61398;DHT22;47267;48.130;-2.040;2024-01-07T07:42:05;18.40;50.80
61398;DHT22;47267;48.130;-2.040;2024-01-07T07:44:32;18.40;50.80
61398;DHT22;47267;48.130;-2.040;2024-01-07T07:46:57;18.40;50.80
61398;DHT22;47267;48.130;-2.040;2024-01-07T07:49:23;18.40;50.90
61398;DHT22;47267;48.130;-2.040;2024-01-07T07:51:48;18.30;50.70
61398;DHT22;47267;48.130;-2.040;2024-01-07T07:54:14;18.40;50.90
61398;DHT22;47267;48.130;-2.040;2024-01-07T07:56:40;18.40;50.80
61398;DHT22;47267;48.130;-2.040;2024-01-07T07:59:06;18.40;50.90
61398;DHT22;47267;48.130;-2.040;2024-01-07T08:01:32;18.40;50.90
61398;DHT22;47267;48.130;-2.040;2024-01-07T08:03:57;18.40;50.90
61398;DHT22;47267;48.130;-2.040;2024-01-07T08:06:23;18.40;50.90
61398;DHT22;47267;48.130;-2.040;2024-01-07T08:08:48;18.40;50.90
61398;DHT22;47267;48.130;-2.040;2024-01-07T08:11:14;18.40;50.80
61398;DHT22;47267;48.130;-2.040;2024-01-07T08:13:41;18.40;50.90
61398;DHT22;47267;48.130;-2.040;2024-01-07T08:16:07;18.40;50.90
61398;DHT22;47267;48.130;-2.040;2024-01-07T08:18:33;18.40;51.00
61398;DHT22;47267;48.130;-2.040;2024-01-07T08:20:58;18.40;51.00
61398;DHT22;47267;48.130;-2.040;2024-01-07T08:23:25;18.40;51.60
61398;DHT22;47267;48.130;-2.040;2024-01-07T08:25:50;18.40;51.00
61398;DHT22;47267;48.130;-2.040;2024-01-07T08:28:19;18.50;51.10
61398;DHT22;47267;48.130;-2.040;2024-01-07T08:30:46;18.40;51.10
61398;DHT22;47267;48.130;-2.040;2024-01-07T08:33:12;18.40;51.10
61398;DHT22;47267;48.130;-2.040;2024-01-07T08:35:37;18.40;51.10
61398;DHT22;47267;48.130;-2.040;2024-01-07T08:38:03;18.40;51.10
61398;DHT22;47267;48.130;-2.040;2024-01-07T08:40:30;18.50;51.20
61398;DHT22;47267;48.130;-2.040;2024-01-07T08:42:56;18.40;51.20
61398;DHT22;47267;48.130;-2.040;2024-01-07T08:45:22;18.50;51.30
61398;DHT22;47267;48.130;-2.040;2024-01-07T08:47:47;18.40;51.20
61398;DHT22;47267;48.130;-2.040;2024-01-07T08:50:13;18.50;51.30
61398;DHT22;47267;48.130;-2.040;2024-01-07T08:52:39;18.40;51.30
61398;DHT22;47267;48.130;-2.040;2024-01-07T08:55:05;18.40;51.30
61398;DHT22;47267;48.130;-2.040;2024-01-07T08:57:33;18.40;51.30
61398;DHT22;47267;48.130;-2.040;2024-01-07T08:59:58;18.40;51.40
61398;DHT22;47267;48.130;-2.040;2024-01-07T09:02:24;18.50;51.50
61398;DHT22;47267;48.130;-2.040;2024-01-07T09:04:51;18.50;51.50
61398;DHT22;47267;48.130;-2.040;2024-01-07T09:07:17;18.50;51.60
61398;DHT22;47267;48.130;-2.040;2024-01-07T09:09:42;18.50;51.60
61398;DHT22;47267;48.130;-2.040;2024-01-07T09:12:08;18.50;51.80
61398;DHT22;47267;48.130;-2.040;2024-01-07T09:14:34;18.50;51.80
61398;DHT22;47267;48.130;-2.040;2024-01-07T09:17:00;18.60;52.00
61398;DHT22;47267;48.130;-2.040;2024-01-07T09:19:25;18.50;52.20
61398;DHT22;47267;48.130;-2.040;2024-01-07T09:21:51;18.60;52.40
61398;DHT22;47267;48.130;-2.040;2024-01-07T09:24:18;18.60;52.50
61398;DHT22;47267;48.130;-2.040;2024-01-07T09:26:44;18.60;52.60
61398;DHT22;47267;48.130;-2.040;2024-01-07T09:29:09;18.60;52.60
61398;DHT22;47267;48.130;-2.040;2024-01-07T09:31:36;18.60;52.70
61398;DHT22;47267;48.130;-2.040;2024-01-07T09:34:01;18.70;52.80
61398;DHT22;47267;48.130;-2.040;2024-01-07T09:36:27;18.70;52.80
61398;DHT22;47267;48.130;-2.040;2024-01-07T09:38:53;18.60;52.70
61398;DHT22;47267;48.130;-2.040;2024-01-07T09:41:19;18.70;52.90
61398;DHT22;47267;48.130;-2.040;2024-01-07T09:43:45;18.70;53.00
61398;DHT22;47267;48.130;-2.040;2024-01-07T09:46:10;18.70;53.00
61398;DHT22;47267;48.130;-2.040;2024-01-07T09:48:36;18.70;53.00
61398;DHT22;47267;48.130;-2.040;2024-01-07T09:51:04;18.70;53.10
61398;DHT22;47267;48.130;-2.040;2024-01-07T09:53:31;18.70;53.20
61398;DHT22;47267;48.130;-2.040;2024-01-07T09:56:20;18.70;53.20
61398;DHT22;47267;48.130;-2.040;2024-01-07T09:58:46;18.80;53.50
61398;DHT22;47267;48.130;-2.040;2024-01-07T10:01:17;18.80;53.50
61398;DHT22;47267;48.130;-2.040;2024-01-07T10:03:42;18.80;53.60
61398;DHT22;47267;48.130;-2.040;2024-01-07T10:06:10;18.80;53.60
61398;DHT22;47267;48.130;-2.040;2024-01-07T10:08:35;18.80;53.70
61398;DHT22;47267;48.130;-2.040;2024-01-07T10:11:01;18.80;53.80
61398;DHT22;47267;48.130;-2.040;2024-01-07T10:13:27;18.80;53.90
61398;DHT22;47267;48.130;-2.040;2024-01-07T10:15:54;18.80;54.00
61398;DHT22;47267;48.130;-2.040;2024-01-07T10:18:20;18.80;54.00
61398;DHT22;47267;48.130;-2.040;2024-01-07T10:20:46;18.90;54.10
61398;DHT22;47267;48.130;-2.040;2024-01-07T10:23:11;18.90;54.20
61398;DHT22;47267;48.130;-2.040;2024-01-07T10:25:37;18.90;54.30
61398;DHT22;47267;48.130;-2.040;2024-01-07T10:28:03;18.90;54.30
61398;DHT22;47267;48.130;-2.040;2024-01-07T10:30:29;18.90;54.40
61398;DHT22;47267;48.130;-2.040;2024-01-07T10:32:59;18.90;54.30
61398;DHT22;47267;48.130;-2.040;2024-01-07T10:35:36;18.90;54.40
61398;DHT22;47267;48.130;-2.040;2024-01-07T10:38:03;18.90;54.40
61398;DHT22;47267;48.130;-2.040;2024-01-07T10:40:30;18.90;54.50
61398;DHT22;47267;48.130;-2.040;2024-01-07T10:42:58;18.90;54.70
61398;DHT22;47267;48.130;-2.040;2024-01-07T10:45:24;19.00;54.70
61398;DHT22;47267;48.130;-2.040;2024-01-07T10:47:53;19.00;54.70
61398;DHT22;47267;48.130;-2.040;2024-01-07T10:50:21;19.00;54.90
61398;DHT22;47267;48.130;-2.040;2024-01-07T10:52:57;19.00;55.00
61398;DHT22;47267;48.130;-2.040;2024-01-07T10:55:25;19.00;55.00
61398;DHT22;47267;48.130;-2.040;2024-01-07T10:57:53;19.00;55.10
61398;DHT22;47267;48.130;-2.040;2024-01-07T11:00:21;19.00;55.10
61398;DHT22;47267;48.130;-2.040;2024-01-07T11:03:10;19.00;55.80
61398;DHT22;47267;48.130;-2.040;2024-01-07T11:05:54;19.10;55.30
61398;DHT22;47267;48.130;-2.040;2024-01-07T11:08:28;19.10;55.40
61398;DHT22;47267;48.130;-2.040;2024-01-07T11:11:18;19.10;55.40
61398;DHT22;47267;48.130;-2.040;2024-01-07T11:13:49;19.10;55.40
61398;DHT22;47267;48.130;-2.040;2024-01-07T11:16:41;19.10;55.60
61398;DHT22;47267;48.130;-2.040;2024-01-07T11:19:07;19.20;55.50
61398;DHT22;47267;48.130;-2.040;2024-01-07T11:21:33;19.20;55.40
61398;DHT22;47267;48.130;-2.040;2024-01-07T11:23:58;19.20;55.40
61398;DHT22;47267;48.130;-2.040;2024-01-07T11:26:24;19.20;55.40
61398;DHT22;47267;48.130;-2.040;2024-01-07T11:28:54;19.20;55.30
61398;DHT22;47267;48.130;-2.040;2024-01-07T11:34:42;19.20;55.30
61398;DHT22;47267;48.130;-2.040;2024-01-07T11:37:17;19.20;55.20
61398;DHT22;47267;48.130;-2.040;2024-01-07T11:39:46;19.20;55.30
61398;DHT22;47267;48.130;-2.040;2024-01-07T11:42:12;19.20;55.50
61398;DHT22;47267;48.130;-2.040;2024-01-07T11:44:45;19.20;55.40
61398;DHT22;47267;48.130;-2.040;2024-01-07T11:47:12;19.20;55.60
61398;DHT22;47267;48.130;-2.040;2024-01-07T11:49:39;19.20;55.70
61398;DHT22;47267;48.130;-2.040;2024-01-07T11:52:05;19.20;55.80
61398;DHT22;47267;48.130;-2.040;2024-01-07T11:54:31;19.20;55.70
61398;DHT22;47267;48.130;-2.040;2024-01-07T11:56:57;19.20;55.90
61398;DHT22;47267;48.130;-2.040;2024-01-07T11:59:23;19.20;55.80
61398;DHT22;47267;48.130;-2.040;2024-01-07T12:01:49;19.20;56.00
61398;DHT22;47267;48.130;-2.040;2024-01-07T12:04:15;19.30;56.10
61398;DHT22;47267;48.130;-2.040;2024-01-07T12:06:40;19.30;56.10
61398;DHT22;47267;48.130;-2.040;2024-01-07T12:09:06;19.30;56.10
61398;DHT22;47267;48.130;-2.040;2024-01-07T12:11:33;19.30;56.10
61398;DHT22;47267;48.130;-2.040;2024-01-07T12:13:59;19.30;56.20
61398;DHT22;47267;48.130;-2.040;2024-01-07T12:16:25;19.30;56.20
61398;DHT22;47267;48.130;-2.040;2024-01-07T12:18:51;19.30;56.30
61398;DHT22;47267;48.130;-2.040;2024-01-07T12:21:20;19.30;56.20
61398;DHT22;47267;48.130;-2.040;2024-01-07T12:23:49;19.30;56.40
61398;DHT22;47267;48.130;-2.040;2024-01-07T12:26:16;19.30;56.40
61398;DHT22;47267;48.130;-2.040;2024-01-07T12:28:42;19.30;56.50
61398;DHT22;47267;48.130;-2.040;2024-01-07T12:31:09;19.30;56.50
61398;DHT22;47267;48.130;-2.040;2024-01-07T12:33:37;19.30;56.50
61398;DHT22;47267;48.130;-2.040;2024-01-07T12:36:03;19.30;56.60
61398;DHT22;47267;48.130;-2.040;2024-01-07T12:38:29;19.30;56.60
61398;DHT22;47267;48.130;-2.040;2024-01-07T12:40:55;19.30;56.50
61398;DHT22;47267;48.130;-2.040;2024-01-07T12:43:21;19.40;56.70
61398;DHT22;47267;48.130;-2.040;2024-01-07T12:45:48;19.30;56.60
61398;DHT22;47267;48.130;-2.040;2024-01-07T12:48:14;19.30;56.60
61398;DHT22;47267;48.130;-2.040;2024-01-07T12:50:40;19.30;56.60
61398;DHT22;47267;48.130;-2.040;2024-01-07T12:53:06;19.40;56.50
61398;DHT22;47267;48.130;-2.040;2024-01-07T12:55:32;19.30;56.50
61398;DHT22;47267;48.130;-2.040;2024-01-07T12:57:58;19.30;56.50
61398;DHT22;47267;48.130;-2.040;2024-01-07T13:00:26;19.30;56.40
61398;DHT22;47267;48.130;-2.040;2024-01-07T13:02:54;19.40;56.40
61398;DHT22;47267;48.130;-2.040;2024-01-07T13:05:20;19.30;56.40
61398;DHT22;47267;48.130;-2.040;2024-01-07T13:07:47;19.40;56.40
61398;DHT22;47267;48.130;-2.040;2024-01-07T13:10:12;19.40;56.40
61398;DHT22;47267;48.130;-2.040;2024-01-07T13:12:38;19.40;56.30
61398;DHT22;47267;48.130;-2.040;2024-01-07T13:15:04;19.40;56.20
61398;DHT22;47267;48.130;-2.040;2024-01-07T13:17:31;19.40;56.20
61398;DHT22;47267;48.130;-2.040;2024-01-07T13:19:59;19.40;56.10
61398;DHT22;47267;48.130;-2.040;2024-01-07T13:22:24;19.40;56.20
61398;DHT22;47267;48.130;-2.040;2024-01-07T13:24:50;19.50;56.00
61398;DHT22;47267;48.130;-2.040;2024-01-07T13:27:16;19.50;55.90
61398;DHT22;47267;48.130;-2.040;2024-01-07T13:29:44;19.50;55.80
61398;DHT22;47267;48.130;-2.040;2024-01-07T13:32:12;19.40;55.70
61398;DHT22;47267;48.130;-2.040;2024-01-07T13:34:43;19.50;55.70
61398;DHT22;47267;48.130;-2.040;2024-01-07T13:37:08;19.50;55.60
61398;DHT22;47267;48.130;-2.040;2024-01-07T13:39:34;19.50;55.60
61398;DHT22;47267;48.130;-2.040;2024-01-07T13:42:00;19.50;55.50
61398;DHT22;47267;48.130;-2.040;2024-01-07T13:44:26;19.50;55.50
61398;DHT22;47267;48.130;-2.040;2024-01-07T13:46:51;19.60;55.40
61398;DHT22;47267;48.130;-2.040;2024-01-07T13:49:17;19.60;55.30
61398;DHT22;47267;48.130;-2.040;2024-01-07T13:51:44;19.50;55.20
61398;DHT22;47267;48.130;-2.040;2024-01-07T13:54:10;19.60;55.10
61398;DHT22;47267;48.130;-2.040;2024-01-07T13:56:39;19.60;55.10
61398;DHT22;47267;48.130;-2.040;2024-01-07T13:59:08;19.60;55.10
61398;DHT22;47267;48.130;-2.040;2024-01-07T14:01:33;19.60;55.00
61398;DHT22;47267;48.130;-2.040;2024-01-07T14:03:59;19.60;55.00
61398;DHT22;47267;48.130;-2.040;2024-01-07T14:06:26;19.60;54.90
61398;DHT22;47267;48.130;-2.040;2024-01-07T14:08:51;19.70;54.80
61398;DHT22;47267;48.130;-2.040;2024-01-07T14:11:21;19.60;54.80
61398;DHT22;47267;48.130;-2.040;2024-01-07T14:13:47;19.70;54.90
61398;DHT22;47267;48.130;-2.040;2024-01-07T14:16:13;19.70;54.80
61398;DHT22;47267;48.130;-2.040;2024-01-07T14:18:39;19.60;54.80
61398;DHT22;47267;48.130;-2.040;2024-01-07T14:21:05;19.70;54.90
61398;DHT22;47267;48.130;-2.040;2024-01-07T14:23:32;19.60;54.80
61398;DHT22;47267;48.130;-2.040;2024-01-07T14:25:59;19.70;54.80
61398;DHT22;47267;48.130;-2.040;2024-01-07T14:28:25;19.70;54.80
61398;DHT22;47267;48.130;-2.040;2024-01-07T14:30:50;19.70;54.70
61398;DHT22;47267;48.130;-2.040;2024-01-07T14:33:16;19.70;54.70
61398;DHT22;47267;48.130;-2.040;2024-01-07T14:35:41;19.80;54.70
61398;DHT22;47267;48.130;-2.040;2024-01-07T14:38:07;19.80;54.70
61398;DHT22;47267;48.130;-2.040;2024-01-07T14:40:33;19.80;54.70
61398;DHT22;47267;48.130;-2.040;2024-01-07T14:42:59;19.80;54.60
61398;DHT22;47267;48.130;-2.040;2024-01-07T14:45:25;19.80;54.70
61398;DHT22;47267;48.130;-2.040;2024-01-07T14:47:51;19.80;54.50
61398;DHT22;47267;48.130;-2.040;2024-01-07T14:50:18;19.80;54.50
61398;DHT22;47267;48.130;-2.040;2024-01-07T14:52:44;19.90;54.60
61398;DHT22;47267;48.130;-2.040;2024-01-07T14:55:10;19.90;54.50
61398;DHT22;47267;48.130;-2.040;2024-01-07T14:57:40;19.90;54.40
61398;DHT22;47267;48.130;-2.040;2024-01-07T15:00:06;19.90;54.40
61398;DHT22;47267;48.130;-2.040;2024-01-07T15:02:32;20.00;54.40
61398;DHT22;47267;48.130;-2.040;2024-01-07T15:04:57;20.00;54.40
61398;DHT22;47267;48.130;-2.040;2024-01-07T15:07:24;20.10;54.40
61398;DHT22;47267;48.130;-2.040;2024-01-07T15:09:50;20.10;54.40
61398;DHT22;47267;48.130;-2.040;2024-01-07T15:12:15;20.10;54.20
61398;DHT22;47267;48.130;-2.040;2024-01-07T15:14:41;20.10;54.20